Terminal Aerodrome Forecast
Issued by NWS La Crosse, WI

Home | Current Version | Previous Version | Text Only | Print | Product List | Glossary On
Versions: 1 2 3 4 5 6 7 8 9 10 11 12 13 14
000
FTUS43 KARX 191120
TAFLSE
TAF
KLSE 191120Z 1912/2012 03007KT P6SM OVC050
     FM191700 04013KT 4SM -RA BR OVC015
     FM200000 04006KT 5SM BR OVC009
     FM200800 04006KT 4SM -FZRA BR OVC008=

USA.gov is the U.S. government's official web portal to all federal, state and local government web resources and services.